createdAt,value
2018-04-14T00:02:15.247Z,24.73
2018-04-14T00:04:43.991Z,25.17
2018-04-14T00:07:12.322Z,25.03
2018-04-14T00:09:40.648Z,25.37
2018-04-14T00:12:09.581Z,26.13
2018-04-14T00:14:37.858Z,26.77
2018-04-14T00:17:06.215Z,23.63
2018-04-14T00:19:35.135Z,25.57
2018-04-14T00:22:04.099Z,27.30
2018-04-14T00:24:33.320Z,28.50
2018-04-14T00:27:01.599Z,27.27
2018-04-14T00:29:29.974Z,28.60
2018-04-14T00:31:58.980Z,27.93
2018-04-14T00:34:27.985Z,28.30
2018-04-14T00:36:57.823Z,30.50
2018-04-14T00:39:26.999Z,32.07
2018-04-14T00:41:56.011Z,30.53
2018-04-14T00:44:24.505Z,30.30
2018-04-14T00:46:54.273Z,30.17
2018-04-14T00:49:22.559Z,30.90
2018-04-14T00:51:51.736Z,29.53
2018-04-14T00:54:20.391Z,31.37
2018-04-14T00:56:49.500Z,28.83
2018-04-14T00:59:18.215Z,27.33
2018-04-14T01:01:46.532Z,28.40
2018-04-14T01:04:15.302Z,27.40
2018-04-14T01:06:45.228Z,25.30
2018-04-14T01:09:13.807Z,27.30
2018-04-14T01:11:42.122Z,25.73
2018-04-14T01:16:43.722Z,28.23
2018-04-14T01:19:12.027Z,32.50
2018-04-14T01:21:40.363Z,29.10
2018-04-14T01:24:08.650Z,29.87
2018-04-14T01:26:36.935Z,32.50
2018-04-14T01:29:06.335Z,30.20
2018-04-14T01:31:34.627Z,30.57
2018-04-14T01:34:02.907Z,31.73
2018-04-14T01:36:31.539Z,36.40
2018-04-14T01:39:00.001Z,36.00
2018-04-14T01:41:28.311Z,40.40
2018-04-14T01:43:57.042Z,36.23
2018-04-14T01:46:25.299Z,35.13
2018-04-14T01:48:53.638Z,34.87
2018-04-14T01:51:21.971Z,38.03
2018-04-14T01:53:50.896Z,31.30
2018-04-14T01:56:19.195Z,36.17
2018-04-14T01:58:47.623Z,37.43
2018-04-14T02:01:15.902Z,36.30
2018-04-14T02:03:45.083Z,41.00
2018-04-14T02:06:13.379Z,41.83
2018-04-14T02:08:41.780Z,40.83
2018-04-14T02:11:10.123Z,39.40
2018-04-14T02:13:38.425Z,40.93
2018-04-14T02:16:06.711Z,40.90
2018-04-14T02:18:35.056Z,41.10
2018-04-14T02:21:03.538Z,40.90
2018-04-14T02:23:31.831Z,40.97
2018-04-14T02:26:00.547Z,42.97
2018-04-14T02:28:28.837Z,43.27
2018-04-14T02:30:57.130Z,48.87
2018-04-14T02:33:25.459Z,50.43
2018-04-14T02:35:53.786Z,51.80
2018-04-14T02:38:22.487Z,51.23
2018-04-14T02:40:50.812Z,59.43
2018-04-14T02:43:19.284Z,60.27
2018-04-14T02:45:47.688Z,63.77
2018-04-14T02:48:15.979Z,57.90
2018-04-14T02:50:44.372Z,60.67
2018-04-14T02:53:12.746Z,58.40
2018-04-14T02:55:41.029Z,53.17
2018-04-14T02:58:09.328Z,56.80
2018-04-14T03:00:37.820Z,60.27
2018-04-14T03:03:06.877Z,63.40
2018-04-14T03:05:35.191Z,64.30
2018-04-14T03:08:03.479Z,68.20
2018-04-14T03:10:32.559Z,61.87
2018-04-14T03:13:01.616Z,58.30
2018-04-14T03:15:29.905Z,56.60
2018-04-14T03:17:58.230Z,58.20
2018-04-14T03:20:26.867Z,55.80
2018-04-14T03:22:55.177Z,56.00
2018-04-14T03:25:23.479Z,56.50
2018-04-14T03:27:52.242Z,54.63
2018-04-14T03:30:20.532Z,58.67
2018-04-14T03:32:48.829Z,58.43
2018-04-14T03:35:17.877Z,57.00
2018-04-14T03:37:46.194Z,64.93
2018-04-14T03:40:14.933Z,61.87
2018-04-14T03:42:44.166Z,56.67
2018-04-14T03:45:12.506Z,57.50
2018-04-14T03:47:40.939Z,53.27
2018-04-14T03:50:09.273Z,52.83
2018-04-14T03:52:37.560Z,46.53
2018-04-14T03:55:06.619Z,50.60
2018-04-14T03:57:35.413Z,48.80
2018-04-14T04:00:03.699Z,51.13
2018-04-14T04:02:31.986Z,51.03
2018-04-14T04:05:00.323Z,46.53
2018-04-14T04:07:28.603Z,46.97
2018-04-14T04:09:56.886Z,46.37
2018-04-14T04:12:25.319Z,50.30
2018-04-14T04:14:53.606Z,48.57
2018-04-14T04:17:22.131Z,47.60
2018-04-14T04:20:08.036Z,45.60
2018-04-14T04:22:54.013Z,45.93
2018-04-14T04:38:50.792Z,43.30
2018-04-14T04:41:19.274Z,49.87
2018-04-14T04:43:47.782Z,57.47
2018-04-14T04:46:16.708Z,55.03
2018-04-14T04:48:45.030Z,58.37
2018-04-14T04:51:13.356Z,54.33
2018-04-14T04:53:42.363Z,51.87
2018-04-14T04:56:10.847Z,54.33
2018-04-14T04:58:39.143Z,50.73
2018-04-14T05:01:08.639Z,49.37
2018-04-14T05:03:36.936Z,48.17
2018-04-14T05:06:05.303Z,50.53
2018-04-14T05:08:33.616Z,47.60
2018-04-14T05:11:01.904Z,49.43
2018-04-14T05:13:30.335Z,48.87
2018-04-14T05:15:58.639Z,50.47
2018-04-14T05:18:26.923Z,46.27
2018-04-14T05:20:55.231Z,49.10
2018-04-14T05:23:23.515Z,46.00
2018-04-14T05:25:52.427Z,52.47
2018-04-14T05:28:20.707Z,44.27
2018-04-14T05:30:49.064Z,47.20
2018-04-14T05:33:17.380Z,43.53
2018-04-14T05:35:46.434Z,45.50
2018-04-14T05:38:14.715Z,41.07
2018-04-14T05:40:43.043Z,41.73
2018-04-14T05:43:11.326Z,36.30
2018-04-14T05:45:39.619Z,31.30
2018-04-14T05:48:07.935Z,23.73
2018-04-14T05:50:36.223Z,25.07
2018-04-14T05:53:04.515Z,22.10
2018-04-14T05:55:33.569Z,19.83
2018-04-14T05:58:01.671Z,19.13
2018-04-14T06:00:29.979Z,20.87
2018-04-14T06:02:58.456Z,19.43
2018-04-14T06:05:26.752Z,20.00
2018-04-14T06:07:55.071Z,16.00
2018-04-14T06:10:23.669Z,13.30
2018-04-14T06:12:52.001Z,15.47
2018-04-14T06:15:20.297Z,11.73
2018-04-14T06:17:48.832Z,11.20
2018-04-14T06:20:17.133Z,12.00
2018-04-14T06:22:45.456Z,12.93
2018-04-14T06:25:13.795Z,12.50
2018-04-14T06:27:42.080Z,11.80
2018-04-14T06:30:10.981Z,12.50
2018-04-14T06:32:39.390Z,11.93
2018-04-14T06:35:07.634Z,9.63
2018-04-14T06:37:35.933Z,12.17
2018-04-14T06:40:04.511Z,11.00
2018-04-14T06:42:32.806Z,11.50
2018-04-14T06:45:01.477Z,11.80
2018-04-14T06:47:29.919Z,11.90
2018-04-14T06:49:58.208Z,10.67
2018-04-14T06:52:27.107Z,10.97
2018-04-14T06:54:55.594Z,10.63
2018-04-14T06:57:24.123Z,10.00
2018-04-14T06:59:52.415Z,10.27
2018-04-14T07:02:20.763Z,12.23
2018-04-14T07:04:49.113Z,10.90
2018-04-14T07:07:18.002Z,10.47
2018-04-14T07:09:46.331Z,11.60
2018-04-14T07:12:15.251Z,10.97
2018-04-14T07:14:43.543Z,11.47
2018-04-14T07:17:11.878Z,12.40
2018-04-14T07:19:40.171Z,11.30
2018-04-14T07:22:08.465Z,12.07
2018-04-14T07:24:37.487Z,12.93
2018-04-14T07:27:05.782Z,10.80
2018-04-14T07:29:34.084Z,10.10
2018-04-14T07:32:02.423Z,12.20
2018-04-14T07:34:30.819Z,11.83
2018-04-14T07:36:59.117Z,10.43
2018-04-14T07:39:28.811Z,10.70
2018-04-14T07:41:57.268Z,11.27
2018-04-14T07:44:25.558Z,10.30
2018-04-14T07:46:53.664Z,9.93
2018-04-14T07:49:21.972Z,11.27
2018-04-14T07:51:50.261Z,10.53
2018-04-14T07:54:18.701Z,10.67
2018-04-14T07:56:47.007Z,11.30
2018-04-14T07:59:15.328Z,11.10
2018-04-14T08:01:44.448Z,11.33
2018-04-14T08:04:12.758Z,10.77
2018-04-14T08:06:41.043Z,11.10
2018-04-14T08:09:09.399Z,12.47
2018-04-14T08:11:37.731Z,12.83
2018-04-14T08:14:05.992Z,10.83
2018-04-14T08:16:34.311Z,10.77
2018-04-14T08:19:02.599Z,11.10
2018-04-14T08:21:30.940Z,12.73
2018-04-14T08:24:00.085Z,11.10
2018-04-14T08:26:28.382Z,9.00
2018-04-14T08:28:56.707Z,8.23
2018-04-14T08:31:25.155Z,10.13
2018-04-14T08:33:53.451Z,10.17
2018-04-14T08:36:23.201Z,9.37
2018-04-14T08:38:51.488Z,9.37
2018-04-14T08:41:19.826Z,9.30
2018-04-14T08:43:48.159Z,9.70
2018-04-14T08:46:16.467Z,11.93
2018-04-14T08:48:45.599Z,10.53
2018-04-14T08:51:13.862Z,8.43
2018-04-14T08:53:42.595Z,10.50
2018-04-14T08:56:10.915Z,10.20
2018-04-14T08:58:39.206Z,9.70
2018-04-14T09:01:07.520Z,9.33
2018-04-14T09:03:35.802Z,8.70
2018-04-14T09:06:04.087Z,6.43
2018-04-14T09:08:33.063Z,6.43
2018-04-14T09:11:01.355Z,5.73
2018-04-14T09:13:29.643Z,6.10
2018-04-14T09:15:58.071Z,7.33
2018-04-14T09:18:27.827Z,9.00
2018-04-14T09:20:56.683Z,6.10
2018-04-14T09:23:24.999Z,5.33
2018-04-14T09:25:53.520Z,5.37
2018-04-14T09:28:21.971Z,5.00
2018-04-14T09:30:51.667Z,5.13
2018-04-14T09:33:19.967Z,6.27
2018-04-14T09:35:48.304Z,4.33
2018-04-14T09:38:16.648Z,5.17
2018-04-14T09:40:44.944Z,5.90
2018-04-14T09:43:13.267Z,10.63
2018-04-14T09:45:41.601Z,9.77
2018-04-14T09:48:09.883Z,4.13
2018-04-14T09:50:38.170Z,4.23
2018-04-14T09:53:06.478Z,3.70
2018-04-14T09:55:34.755Z,4.07
2018-04-14T09:58:03.031Z,3.50
2018-04-14T10:00:32.123Z,3.93
2018-04-14T10:03:00.450Z,3.20
2018-04-14T10:05:29.512Z,3.30
2018-04-14T10:07:59.223Z,3.50
2018-04-14T10:10:28.338Z,3.20
2018-04-14T10:12:56.563Z,5.03
2018-04-14T10:15:24.959Z,3.70
2018-04-14T10:17:53.243Z,2.80
2018-04-14T10:20:21.858Z,3.77
2018-04-14T10:22:50.615Z,3.30
2018-04-14T10:25:18.904Z,3.13
2018-04-14T10:27:47.657Z,3.03
2018-04-14T10:30:16.156Z,2.83
2018-04-14T10:32:44.226Z,2.30
2018-04-14T10:35:12.544Z,2.43
2018-04-14T10:37:40.891Z,2.30
2018-04-14T10:40:09.159Z,2.57
2018-04-14T10:42:37.482Z,3.10
2018-04-14T10:45:05.771Z,2.83
2018-04-14T10:47:34.098Z,2.83
2018-04-14T10:50:03.183Z,2.30
2018-04-14T10:52:31.434Z,2.87
2018-04-14T10:54:59.734Z,2.37
2018-04-14T10:57:28.106Z,2.30
2018-04-14T10:59:56.427Z,2.60
2018-04-14T11:02:24.745Z,2.03
2018-04-14T11:04:53.039Z,2.00
2018-04-14T11:07:21.131Z,2.23
2018-04-14T11:09:50.188Z,1.47
2018-04-14T11:12:18.466Z,1.43
2018-04-14T11:14:47.031Z,1.50
2018-04-14T11:17:15.731Z,1.60
2018-04-14T11:19:44.015Z,1.80
2018-04-14T11:22:12.339Z,1.70
2018-04-14T11:24:40.627Z,1.40
2018-04-14T11:27:08.922Z,2.07
2018-04-14T11:29:37.238Z,2.33
2018-04-14T11:32:05.514Z,2.20
2018-04-14T11:34:33.795Z,1.43
2018-04-14T11:37:02.111Z,1.60
2018-04-14T11:39:30.391Z,1.53
2018-04-14T11:41:58.726Z,2.57
2018-04-14T11:44:27.024Z,1.90
2018-04-14T11:46:55.311Z,2.73
2018-04-14T11:49:23.637Z,1.90
2018-04-14T11:51:51.916Z,2.37
2018-04-14T11:54:20.206Z,1.67
2018-04-14T11:56:48.975Z,1.53
2018-04-14T11:59:17.847Z,2.10
2018-04-14T12:01:46.135Z,2.00
2018-04-14T12:04:14.766Z,1.53
2018-04-14T12:06:43.055Z,1.73
2018-04-14T12:09:11.464Z,2.17
2018-04-14T12:11:39.571Z,1.57
2018-04-14T12:14:07.852Z,1.77
2018-04-14T12:16:36.238Z,1.50
2018-04-14T12:19:04.604Z,1.97
2018-04-14T12:21:32.895Z,2.13
2018-04-14T12:24:01.761Z,1.43
2018-04-14T12:26:29.866Z,1.90
2018-04-14T12:28:58.219Z,1.90
2018-04-14T12:31:26.551Z,2.60
2018-04-14T12:33:55.436Z,1.63
2018-04-14T12:36:23.725Z,2.53
2018-04-14T12:38:52.191Z,1.47
2018-04-14T12:41:20.605Z,1.50
2018-04-14T12:43:50.200Z,1.43
2018-04-14T12:46:18.602Z,1.20
2018-04-14T12:48:46.891Z,1.33
2018-04-14T12:51:15.174Z,1.70
2018-04-14T12:53:43.503Z,1.40
2018-04-14T12:56:11.791Z,1.20
2018-04-14T12:58:40.819Z,1.57
2018-04-14T13:01:09.304Z,1.50
2018-04-14T13:03:37.593Z,1.13
2018-04-14T13:06:06.619Z,1.30
2018-04-14T13:08:35.343Z,1.30
2018-04-14T13:11:03.627Z,1.17
2018-04-14T13:13:32.063Z,1.20
2018-04-14T13:16:00.346Z,1.30
2018-04-14T13:18:28.663Z,1.30
2018-04-14T13:20:57.008Z,1.53
2018-04-14T13:23:25.295Z,1.30
2018-04-14T13:25:53.588Z,1.50
2018-04-14T13:28:22.627Z,1.30
2018-04-14T13:30:51.610Z,1.13
2018-04-14T13:33:19.982Z,1.50
2018-04-14T13:35:49.051Z,1.40
2018-04-14T13:38:18.152Z,1.37
2018-04-14T13:40:46.486Z,1.37
2018-04-14T13:43:14.766Z,1.60
2018-04-14T13:45:43.049Z,1.40
2018-04-14T13:48:11.420Z,1.50
2018-04-14T13:50:39.716Z,1.40
2018-04-14T13:53:08.415Z,1.50
2018-04-14T13:55:38.468Z,1.30
2018-04-14T13:58:07.058Z,3.03
2018-04-14T14:00:35.446Z,1.40
2018-04-14T14:03:04.844Z,1.60
2018-04-14T14:05:33.143Z,1.30
2018-04-14T14:08:01.591Z,2.07
2018-04-14T14:10:29.875Z,1.60
2018-04-14T14:12:58.283Z,2.50
2018-04-14T14:15:26.655Z,1.57
2018-04-14T14:17:54.895Z,1.50
2018-04-14T14:20:23.776Z,1.77
2018-04-14T14:22:52.119Z,1.70
2018-04-14T14:25:20.406Z,2.13
2018-04-14T14:27:49.467Z,2.07
2018-04-14T14:30:18.543Z,2.33
2018-04-14T14:32:46.759Z,2.20
2018-04-14T14:35:15.364Z,2.03
2018-04-14T14:37:43.741Z,2.57
2018-04-14T14:40:12.018Z,2.37
2018-04-14T14:42:40.851Z,2.30
2018-04-14T14:45:09.187Z,2.20
2018-04-14T14:47:38.231Z,2.30
2018-04-14T14:50:12.028Z,2.37
2018-04-14T14:52:40.311Z,2.10
2018-04-14T14:55:09.082Z,1.80
2018-04-14T14:57:37.415Z,2.50
2018-04-14T15:00:05.702Z,1.70
2018-04-14T15:02:33.986Z,2.20
2018-04-14T15:05:02.516Z,1.70
2018-04-14T15:07:31.446Z,2.10
2018-04-14T15:10:00.250Z,2.17
2018-04-14T15:12:28.598Z,1.63
2018-04-14T15:14:56.891Z,1.80
2018-04-14T15:17:25.180Z,1.97
2018-04-14T15:19:53.515Z,2.17
2018-04-14T15:22:21.800Z,2.03
2018-04-14T15:24:50.089Z,1.90
2018-04-14T15:27:18.411Z,2.07
2018-04-14T15:29:46.687Z,2.40
2018-04-14T15:32:15.095Z,1.90
2018-04-14T15:34:43.435Z,2.20
2018-04-14T15:37:12.019Z,2.27
2018-04-14T15:39:40.319Z,2.23
2018-04-14T15:42:08.666Z,1.97
2018-04-14T15:44:36.956Z,2.60
2018-04-14T15:47:05.248Z,1.90
2018-04-14T15:49:33.607Z,2.23
2018-04-14T15:52:02.598Z,2.20
2018-04-14T15:54:31.084Z,2.00
2018-04-14T15:56:59.450Z,2.20
2018-04-14T15:59:27.742Z,2.47
2018-04-14T16:01:56.139Z,2.30
2018-04-14T16:04:24.480Z,2.73
2018-04-14T16:06:52.770Z,2.90
2018-04-14T16:09:21.078Z,1.80
2018-04-14T16:11:49.407Z,1.87
2018-04-14T16:14:17.686Z,2.60
2018-04-14T16:16:45.974Z,2.40
2018-04-14T16:19:14.319Z,2.97
2018-04-14T16:21:42.610Z,3.00
2018-04-14T16:24:11.011Z,2.13
2018-04-14T16:26:39.343Z,2.60
2018-04-14T16:29:07.626Z,2.30
2018-04-14T16:31:35.911Z,2.50
2018-04-14T16:34:04.248Z,2.20
2018-04-14T16:36:32.910Z,2.13
2018-04-14T16:39:01.207Z,2.27
2018-04-14T16:41:29.555Z,2.83
2018-04-14T16:43:57.839Z,2.67
2018-04-14T16:46:26.128Z,2.10
2018-04-14T16:48:54.472Z,2.40
2018-04-14T16:51:22.776Z,2.33
2018-04-14T16:53:51.100Z,2.50
2018-04-14T16:56:19.426Z,3.10
2018-04-14T16:58:47.934Z,2.93
2018-04-14T17:01:17.022Z,3.03
2018-04-14T17:03:45.315Z,5.37
2018-04-14T17:06:14.375Z,2.73
2018-04-14T17:08:42.708Z,2.57
2018-04-14T17:11:10.995Z,3.60
2018-04-14T17:13:39.283Z,2.83
2018-04-14T17:16:07.689Z,2.50
2018-04-14T17:18:36.376Z,2.47
2018-04-14T17:21:04.663Z,2.77
2018-04-14T17:23:32.995Z,2.70
2018-04-14T17:26:01.274Z,2.57
2018-04-14T17:28:29.554Z,2.87
2018-04-14T17:30:57.880Z,2.90
2018-04-14T17:33:26.172Z,3.60
2018-04-14T17:35:54.459Z,3.67
2018-04-14T17:38:23.303Z,3.30
2018-04-14T17:40:51.587Z,3.40
2018-04-14T17:43:19.867Z,2.83
2018-04-14T17:45:48.274Z,2.97
2018-04-14T17:48:16.567Z,2.80
2018-04-14T17:50:45.385Z,2.90
2018-04-14T17:53:13.723Z,3.10
2018-04-14T17:55:42.783Z,2.73
2018-04-14T17:58:11.063Z,2.93
2018-04-14T18:00:39.727Z,2.50
2018-04-14T18:03:08.289Z,3.30
2018-04-14T18:05:36.575Z,3.10
2018-04-14T18:08:04.927Z,2.97
2018-04-14T18:10:33.243Z,3.37
2018-04-14T18:13:01.667Z,3.27
2018-04-14T18:15:30.767Z,3.53
2018-04-14T18:17:59.055Z,2.93
2018-04-14T18:20:27.343Z,7.67
2018-04-14T18:22:55.767Z,5.07
2018-04-14T18:25:24.311Z,4.33
2018-04-14T18:27:52.915Z,7.30
2018-04-14T18:30:21.233Z,4.23
2018-04-14T18:32:49.519Z,6.13
2018-04-14T18:35:17.849Z,4.43
2018-04-14T18:37:46.206Z,6.57
2018-04-14T18:40:14.526Z,7.53
2018-04-14T18:42:42.814Z,5.30
2018-04-14T18:45:11.149Z,4.40
2018-04-14T18:47:39.779Z,4.03
2018-04-14T18:50:08.067Z,4.20
2018-04-14T18:52:36.375Z,5.50
2018-04-14T18:55:04.711Z,4.53
2018-04-14T18:57:33.002Z,4.27
2018-04-14T19:00:02.104Z,5.67
2018-04-14T19:02:30.991Z,4.10
2018-04-14T19:04:59.301Z,4.70
2018-04-14T19:07:27.908Z,7.07
2018-04-14T19:09:56.492Z,6.20
2018-04-14T19:12:24.796Z,5.33
2018-04-14T19:14:53.127Z,5.70
2018-04-14T19:17:21.752Z,5.63
2018-04-14T19:19:50.039Z,5.93
2018-04-14T19:22:18.368Z,5.63
2018-04-14T19:24:46.659Z,6.20
2018-04-14T19:27:14.955Z,6.13
2018-04-14T19:29:43.443Z,5.63
2018-04-14T19:32:11.739Z,6.10
2018-04-14T19:34:41.355Z,5.60
2018-04-14T19:37:09.739Z,5.33
2018-04-14T19:39:38.027Z,6.43
2018-04-14T19:42:06.763Z,6.67
2018-04-14T19:44:35.482Z,6.30
2018-04-14T19:47:04.852Z,7.57
2018-04-14T19:49:34.108Z,8.27
2018-04-14T19:52:02.623Z,6.90
2018-04-14T19:54:31.092Z,9.53
2018-04-14T19:56:59.330Z,8.53
2018-04-14T19:59:27.616Z,7.93
2018-04-14T20:01:56.620Z,7.23
2018-04-14T20:04:26.433Z,7.73
2018-04-14T20:06:55.408Z,7.70
2018-04-14T20:09:24.575Z,11.13
2018-04-14T20:11:53.172Z,10.80
2018-04-14T20:14:21.482Z,12.37
2018-04-14T20:16:51.028Z,12.00
2018-04-14T20:19:20.035Z,9.20
2018-04-14T20:21:48.323Z,9.90
2018-04-14T20:24:16.639Z,9.20
2018-04-14T20:26:45.007Z,10.90
2018-04-14T20:29:13.300Z,9.50
2018-04-14T20:31:41.731Z,11.47
2018-04-14T20:34:10.028Z,11.63
2018-04-14T20:36:39.035Z,8.97
2018-04-14T20:39:07.341Z,8.07
2018-04-14T20:41:36.488Z,8.77
2018-04-14T20:44:05.585Z,9.10
2018-04-14T20:46:33.914Z,8.70
2018-04-14T20:49:02.221Z,8.00
2018-04-14T20:51:30.524Z,7.90
2018-04-14T20:54:00.151Z,7.10
2018-04-14T20:56:28.441Z,8.47
2018-04-14T20:58:56.763Z,8.93
2018-04-14T21:01:25.104Z,10.97
2018-04-14T21:03:53.392Z,8.30
2018-04-14T21:06:21.683Z,6.93
2018-04-14T21:08:49.998Z,9.30
2018-04-14T21:11:18.287Z,9.13
2018-04-14T21:13:46.617Z,9.70
2018-04-14T21:16:14.906Z,8.33
2018-04-14T21:18:43.365Z,8.20
2018-04-14T21:21:11.703Z,8.80
2018-04-14T21:23:39.999Z,9.83
2018-04-14T21:26:08.296Z,9.77
2018-04-14T21:28:36.639Z,9.80
2018-04-14T21:31:05.170Z,10.43
2018-04-14T21:33:33.598Z,9.43
2018-04-14T21:36:01.956Z,10.50
2018-04-14T21:38:31.415Z,10.07
2018-04-14T21:41:00.503Z,8.67
2018-04-14T21:43:29.728Z,7.77
2018-04-14T21:45:58.822Z,9.80
2018-04-14T21:48:27.253Z,8.30
2018-04-14T21:50:56.439Z,9.00
2018-04-14T21:53:25.671Z,9.97
2018-04-14T21:55:55.574Z,8.10
2018-04-14T21:58:25.255Z,7.77
2018-04-14T22:00:54.587Z,7.93
2018-04-14T22:03:23.792Z,8.90
2018-04-14T22:05:52.098Z,8.80
2018-04-14T22:08:20.404Z,8.87
2018-04-14T22:10:49.507Z,8.50
2018-04-14T22:13:18.601Z,8.53
2018-04-14T22:15:47.652Z,9.57
2018-04-14T22:18:15.979Z,8.10
2018-04-14T22:20:45.027Z,7.97
2018-04-14T22:23:13.312Z,9.10
2018-04-14T22:25:41.636Z,8.97
2018-04-14T22:28:09.921Z,9.37
2018-04-14T22:30:38.587Z,10.57
2018-04-14T22:33:07.667Z,9.13
2018-04-14T22:35:36.004Z,10.23
2018-04-14T22:38:04.306Z,11.03
2018-04-14T22:40:32.743Z,10.77
2018-04-14T22:43:01.298Z,11.43
2018-04-14T22:45:30.156Z,9.83
2018-04-14T22:47:58.941Z,10.33
2018-04-14T22:50:27.233Z,10.03
2018-04-14T22:52:56.090Z,11.40
2018-04-14T22:55:24.408Z,10.07
2018-04-14T22:57:52.734Z,9.27
2018-04-14T23:00:21.065Z,9.60
2018-04-14T23:02:49.351Z,9.80
2018-04-14T23:05:17.651Z,9.97
2018-04-14T23:07:45.979Z,10.50
2018-04-14T23:10:14.506Z,9.13
2018-04-14T23:12:42.847Z,11.90
2018-04-14T23:15:11.134Z,10.17
2018-04-14T23:17:39.410Z,9.07
2018-04-14T23:20:08.523Z,11.07
2018-04-14T23:22:36.814Z,10.30
2018-04-14T23:25:06.272Z,10.50
2018-04-14T23:27:34.612Z,10.53
2018-04-14T23:30:03.039Z,10.10
2018-04-14T23:32:31.911Z,9.13
2018-04-14T23:35:00.260Z,10.93
2018-04-14T23:37:28.564Z,10.43
2018-04-14T23:39:56.859Z,10.07
2018-04-14T23:42:25.272Z,10.93
2018-04-14T23:44:53.822Z,9.77
2018-04-14T23:47:22.105Z,10.23
2018-04-14T23:49:50.442Z,10.73
2018-04-14T23:52:18.732Z,11.13
2018-04-14T23:54:47.019Z,9.73
2018-04-14T23:57:15.342Z,11.00
2018-04-14T23:59:43.658Z,10.83
